sensor_id;sensor_type;location;lat;lon;timestamp;pressure;altitude;pressure_sealevel;temperature;humidity
75247;BME280;63844;50.042;19.224;2023-02-08T00:02:00;101530.45;;;-2.66;81.96
75247;BME280;63844;50.042;19.224;2023-02-08T00:04:26;101525.55;;;-2.68;81.79
75247;BME280;63844;50.042;19.224;2023-02-08T00:06:53;101528.11;;;-2.69;81.77
75247;BME280;63844;50.042;19.224;2023-02-08T00:09:19;101532.41;;;-2.70;81.60
75247;BME280;63844;50.042;19.224;2023-02-08T00:11:46;101534.27;;;-2.72;81.95
75247;BME280;63844;50.042;19.224;2023-02-08T00:14:12;101525.84;;;-2.76;82.63
75247;BME280;63844;50.042;19.224;2023-02-08T00:16:39;101525.95;;;-2.71;82.59
75247;BME280;63844;50.042;19.224;2023-02-08T00:19:05;101528.16;;;-2.67;82.02
75247;BME280;63844;50.042;19.224;2023-02-08T00:21:31;101522.87;;;-2.64;82.12
75247;BME280;63844;50.042;19.224;2023-02-08T00:23:58;101525.82;;;-2.58;82.03
75247;BME280;63844;50.042;19.224;2023-02-08T00:26:24;101524.17;;;-2.55;82.03
75247;BME280;63844;50.042;19.224;2023-02-08T00:28:51;101527.61;;;-2.56;82.06
75247;BME280;63844;50.042;19.224;2023-02-08T00:31:17;101526.88;;;-2.57;82.05
75247;BME280;63844;50.042;19.224;2023-02-08T00:33:44;101524.65;;;-2.57;82.23
75247;BME280;63844;50.042;19.224;2023-02-08T00:36:11;101528.17;;;-2.61;82.17
75247;BME280;63844;50.042;19.224;2023-02-08T00:38:37;101525.89;;;-2.61;82.27
75247;BME280;63844;50.042;19.224;2023-02-08T00:41:04;101521.42;;;-2.60;82.10
75247;BME280;63844;50.042;19.224;2023-02-08T00:43:31;101522.29;;;-2.60;82.12
75247;BME280;63844;50.042;19.224;2023-02-08T00:45:58;101520.96;;;-2.64;82.17
75247;BME280;63844;50.042;19.224;2023-02-08T00:48:26;101517.31;;;-2.65;81.97
75247;BME280;63844;50.042;19.224;2023-02-08T00:51:04;101513.77;;;-2.67;82.14
75247;BME280;63844;50.042;19.224;2023-02-08T00:53:37;101512.77;;;-2.66;82.16
75247;BME280;63844;50.042;19.224;2023-02-08T00:56:05;101519.38;;;-2.65;82.12
75247;BME280;63844;50.042;19.224;2023-02-08T00:58:32;101517.39;;;-2.62;81.90
75247;BME280;63844;50.042;19.224;2023-02-08T01:01:00;101514.91;;;-2.58;82.10
75247;BME280;63844;50.042;19.224;2023-02-08T01:03:28;101515.23;;;-2.58;82.04
75247;BME280;63844;50.042;19.224;2023-02-08T01:05:59;101512.46;;;-2.58;82.28
75247;BME280;63844;50.042;19.224;2023-02-08T01:08:27;101512.52;;;-2.57;82.24
75247;BME280;63844;50.042;19.224;2023-02-08T01:11:02;101515.70;;;-2.61;82.25
75247;BME280;63844;50.042;19.224;2023-02-08T01:13:28;101514.23;;;-2.64;82.14
75247;BME280;63844;50.042;19.224;2023-02-08T01:15:55;101514.98;;;-2.67;82.29
75247;BME280;63844;50.042;19.224;2023-02-08T01:18:21;101525.30;;;-2.70;82.38
75247;BME280;63844;50.042;19.224;2023-02-08T01:20:48;101527.56;;;-2.70;82.23
75247;BME280;63844;50.042;19.224;2023-02-08T01:23:14;101527.73;;;-2.70;82.14
75247;BME280;63844;50.042;19.224;2023-02-08T01:25:41;101529.26;;;-2.72;82.35
75247;BME280;63844;50.042;19.224;2023-02-08T01:28:07;101530.23;;;-2.74;82.81
75247;BME280;63844;50.042;19.224;2023-02-08T01:30:34;101523.93;;;-2.76;83.06
75247;BME280;63844;50.042;19.224;2023-02-08T01:33:00;101524.86;;;-2.79;83.02
75247;BME280;63844;50.042;19.224;2023-02-08T01:35:27;101526.21;;;-2.81;82.33
75247;BME280;63844;50.042;19.224;2023-02-08T01:37:53;101522.52;;;-2.82;82.63
75247;BME280;63844;50.042;19.224;2023-02-08T01:40:19;101523.30;;;-2.86;83.16
75247;BME280;63844;50.042;19.224;2023-02-08T01:42:46;101531.98;;;-2.85;82.92
75247;BME280;63844;50.042;19.224;2023-02-08T01:47:55;101526.23;;;-2.80;82.31
75247;BME280;63844;50.042;19.224;2023-02-08T01:50:27;101526.89;;;-2.81;82.05
75247;BME280;63844;50.042;19.224;2023-02-08T01:52:56;101527.26;;;-2.80;82.26
75247;BME280;63844;50.042;19.224;2023-02-08T01:55:27;101525.84;;;-2.76;82.42
75247;BME280;63844;50.042;19.224;2023-02-08T01:57:58;101525.77;;;-2.72;82.50
75247;BME280;63844;50.042;19.224;2023-02-08T02:00:26;101528.74;;;-2.71;82.75
75247;BME280;63844;50.042;19.224;2023-02-08T02:02:55;101528.20;;;-2.66;82.69
75247;BME280;63844;50.042;19.224;2023-02-08T02:05:33;101531.59;;;-2.63;82.83
75247;BME280;63844;50.042;19.224;2023-02-08T02:08:00;101534.77;;;-2.61;83.13
75247;BME280;63844;50.042;19.224;2023-02-08T02:10:30;101532.58;;;-2.58;83.25
75247;BME280;63844;50.042;19.224;2023-02-08T02:13:05;101532.90;;;-2.59;83.22
75247;BME280;63844;50.042;19.224;2023-02-08T02:15:32;101531.23;;;-2.57;82.96
75247;BME280;63844;50.042;19.224;2023-02-08T02:18:00;101529.45;;;-2.58;82.84
75247;BME280;63844;50.042;19.224;2023-02-08T02:26:12;101532.89;;;-2.53;82.82
75247;BME280;63844;50.042;19.224;2023-02-08T02:29:27;101533.49;;;-2.56;82.44
75247;BME280;63844;50.042;19.224;2023-02-08T02:35:05;101523.42;;;-2.63;82.08
75247;BME280;63844;50.042;19.224;2023-02-08T02:37:50;101521.27;;;-2.66;82.60
75247;BME280;63844;50.042;19.224;2023-02-08T02:41:05;101527.08;;;-2.69;82.29
75247;BME280;63844;50.042;19.224;2023-02-08T02:43:51;101529.31;;;-2.69;82.64
75247;BME280;63844;50.042;19.224;2023-02-08T02:46:33;101530.08;;;-2.73;82.16
75247;BME280;63844;50.042;19.224;2023-02-08T02:49:16;101526.98;;;-2.78;82.10
75247;BME280;63844;50.042;19.224;2023-02-08T02:54:26;101532.00;;;-2.78;83.59
75247;BME280;63844;50.042;19.224;2023-02-08T02:57:00;101534.39;;;-2.79;83.34
75247;BME280;63844;50.042;19.224;2023-02-08T02:59:31;101535.17;;;-2.82;82.31
75247;BME280;63844;50.042;19.224;2023-02-08T03:01:59;101536.58;;;-2.82;82.23
75247;BME280;63844;50.042;19.224;2023-02-08T03:07:14;101538.66;;;-2.81;82.46
75247;BME280;63844;50.042;19.224;2023-02-08T03:15:35;101550.14;;;-2.68;83.21
75247;BME280;63844;50.042;19.224;2023-02-08T03:18:22;101554.17;;;-2.67;82.77
75247;BME280;63844;50.042;19.224;2023-02-08T03:21:36;101557.48;;;-2.66;83.01
75247;BME280;63844;50.042;19.224;2023-02-08T03:27:03;101564.30;;;-2.64;82.98
75247;BME280;63844;50.042;19.224;2023-02-08T03:32:37;101572.52;;;-2.56;83.33
75247;BME280;63844;50.042;19.224;2023-02-08T03:35:13;101570.42;;;-2.51;82.93
75247;BME280;63844;50.042;19.224;2023-02-08T03:37:47;101573.34;;;-2.52;83.05
75247;BME280;63844;50.042;19.224;2023-02-08T03:40:16;101571.92;;;-2.52;82.77
75247;BME280;63844;50.042;19.224;2023-02-08T03:42:45;101570.91;;;-2.57;83.86
75247;BME280;63844;50.042;19.224;2023-02-08T03:45:24;101569.61;;;-2.61;84.44
75247;BME280;63844;50.042;19.224;2023-02-08T03:47:55;101569.23;;;-2.62;84.34
75247;BME280;63844;50.042;19.224;2023-02-08T03:50:23;101571.91;;;-2.59;83.65
75247;BME280;63844;50.042;19.224;2023-02-08T03:52:51;101577.30;;;-2.58;84.26
75247;BME280;63844;50.042;19.224;2023-02-08T03:55:25;101577.45;;;-2.59;84.34
75247;BME280;63844;50.042;19.224;2023-02-08T03:57:56;101580.06;;;-2.59;84.02
75247;BME280;63844;50.042;19.224;2023-02-08T04:00:24;101580.76;;;-2.59;84.07
75247;BME280;63844;50.042;19.224;2023-02-08T04:03:02;101578.84;;;-2.59;84.16
75247;BME280;63844;50.042;19.224;2023-02-08T04:05:31;101580.09;;;-2.58;83.39
75247;BME280;63844;50.042;19.224;2023-02-08T04:07:58;101582.30;;;-2.59;84.59
75247;BME280;63844;50.042;19.224;2023-02-08T04:10:25;101576.58;;;-2.60;85.16
75247;BME280;63844;50.042;19.224;2023-02-08T04:12:51;101572.45;;;-2.58;84.64
75247;BME280;63844;50.042;19.224;2023-02-08T04:15:17;101571.23;;;-2.59;84.71
75247;BME280;63844;50.042;19.224;2023-02-08T04:17:44;101569.67;;;-2.58;84.69
75247;BME280;63844;50.042;19.224;2023-02-08T04:20:11;101569.30;;;-2.54;84.28
75247;BME280;63844;50.042;19.224;2023-02-08T04:22:37;101565.95;;;-2.49;84.30
75247;BME280;63844;50.042;19.224;2023-02-08T04:25:05;101563.48;;;-2.44;84.15
75247;BME280;63844;50.042;19.224;2023-02-08T04:27:31;101564.18;;;-2.44;84.43
75247;BME280;63844;50.042;19.224;2023-02-08T04:29:58;101563.18;;;-2.43;84.61
75247;BME280;63844;50.042;19.224;2023-02-08T04:32:24;101556.42;;;-2.43;84.52
75247;BME280;63844;50.042;19.224;2023-02-08T04:34:51;101561.97;;;-2.43;83.98
75247;BME280;63844;50.042;19.224;2023-02-08T04:37:17;101559.05;;;-2.48;84.45
75247;BME280;63844;50.042;19.224;2023-02-08T04:39:43;101564.27;;;-2.47;83.79
75247;BME280;63844;50.042;19.224;2023-02-08T04:42:10;101565.27;;;-2.49;84.54
75247;BME280;63844;50.042;19.224;2023-02-08T04:44:36;101562.83;;;-2.49;83.82
75247;BME280;63844;50.042;19.224;2023-02-08T04:47:03;101568.96;;;-2.53;83.64
75247;BME280;63844;50.042;19.224;2023-02-08T04:49:33;101572.19;;;-2.55;84.77
75247;BME280;63844;50.042;19.224;2023-02-08T04:51:59;101575.91;;;-2.53;83.71
75247;BME280;63844;50.042;19.224;2023-02-08T04:54:26;101572.41;;;-2.53;83.48
75247;BME280;63844;50.042;19.224;2023-02-08T04:56:53;101580.67;;;-2.56;83.62
75247;BME280;63844;50.042;19.224;2023-02-08T04:59:19;101578.50;;;-2.53;83.85
75247;BME280;63844;50.042;19.224;2023-02-08T05:01:46;101577.57;;;-2.49;83.76
75247;BME280;63844;50.042;19.224;2023-02-08T05:04:12;101576.70;;;-2.43;83.91
75247;BME280;63844;50.042;19.224;2023-02-08T05:06:39;101580.60;;;-2.40;84.28
75247;BME280;63844;50.042;19.224;2023-02-08T05:09:07;101581.14;;;-2.39;84.47
75247;BME280;63844;50.042;19.224;2023-02-08T05:11:34;101579.08;;;-2.39;84.47
75247;BME280;63844;50.042;19.224;2023-02-08T05:14:02;101579.66;;;-2.37;84.39
75247;BME280;63844;50.042;19.224;2023-02-08T05:16:28;101582.09;;;-2.37;84.49
75247;BME280;63844;50.042;19.224;2023-02-08T05:18:55;101586.94;;;-2.37;84.44
75247;BME280;63844;50.042;19.224;2023-02-08T05:21:22;101585.34;;;-2.38;84.51
75247;BME280;63844;50.042;19.224;2023-02-08T05:23:50;101586.52;;;-2.39;84.27
75247;BME280;63844;50.042;19.224;2023-02-08T05:26:17;101593.92;;;-2.41;84.65
75247;BME280;63844;50.042;19.224;2023-02-08T05:28:43;101592.84;;;-2.42;84.82
75247;BME280;63844;50.042;19.224;2023-02-08T05:31:13;101593.71;;;-2.42;84.87
75247;BME280;63844;50.042;19.224;2023-02-08T05:33:39;101592.80;;;-2.44;85.04
75247;BME280;63844;50.042;19.224;2023-02-08T05:36:06;101594.02;;;-2.44;85.30
75247;BME280;63844;50.042;19.224;2023-02-08T05:38:32;101590.58;;;-2.43;85.08
75247;BME280;63844;50.042;19.224;2023-02-08T05:40:59;101589.95;;;-2.41;84.38
75247;BME280;63844;50.042;19.224;2023-02-08T05:43:26;101589.97;;;-2.40;84.66
75247;BME280;63844;50.042;19.224;2023-02-08T05:45:52;101590.81;;;-2.41;85.09
75247;BME280;63844;50.042;19.224;2023-02-08T05:48:19;101588.27;;;-2.39;84.77
75247;BME280;63844;50.042;19.224;2023-02-08T05:50:45;101586.02;;;-2.38;84.49
75247;BME280;63844;50.042;19.224;2023-02-08T05:53:12;101585.91;;;-2.36;84.29
75247;BME280;63844;50.042;19.224;2023-02-08T05:55:38;101580.72;;;-2.36;84.01
75247;BME280;63844;50.042;19.224;2023-02-08T05:58:05;101590.86;;;-2.38;84.41
75247;BME280;63844;50.042;19.224;2023-02-08T06:00:31;101597.52;;;-2.36;84.51
75247;BME280;63844;50.042;19.224;2023-02-08T06:02:57;101602.51;;;-2.38;84.96
75247;BME280;63844;50.042;19.224;2023-02-08T06:05:24;101604.48;;;-2.35;84.98
75247;BME280;63844;50.042;19.224;2023-02-08T06:07:50;101615.08;;;-2.35;85.02
75247;BME280;63844;50.042;19.224;2023-02-08T06:10:17;101617.35;;;-2.35;85.10
75247;BME280;63844;50.042;19.224;2023-02-08T06:12:43;101623.88;;;-2.30;84.41
75247;BME280;63844;50.042;19.224;2023-02-08T06:15:10;101630.29;;;-2.25;84.46
75247;BME280;63844;50.042;19.224;2023-02-08T06:17:37;101630.02;;;-2.22;84.39
75247;BME280;63844;50.042;19.224;2023-02-08T06:20:04;101635.38;;;-2.22;84.40
75247;BME280;63844;50.042;19.224;2023-02-08T06:22:32;101634.85;;;-2.23;84.41
75247;BME280;63844;50.042;19.224;2023-02-08T06:24:59;101638.52;;;-2.22;84.36
75247;BME280;63844;50.042;19.224;2023-02-08T06:27:26;101640.06;;;-2.23;84.11
75247;BME280;63844;50.042;19.224;2023-02-08T06:29:52;101639.85;;;-2.24;83.91
75247;BME280;63844;50.042;19.224;2023-02-08T06:32:19;101641.01;;;-2.26;84.28
75247;BME280;63844;50.042;19.224;2023-02-08T06:34:45;101648.11;;;-2.26;83.80
75247;BME280;63844;50.042;19.224;2023-02-08T06:37:13;101648.77;;;-2.28;83.97
75247;BME280;63844;50.042;19.224;2023-02-08T06:39:40;101651.90;;;-2.27;84.21
75247;BME280;63844;50.042;19.224;2023-02-08T06:42:06;101658.95;;;-2.23;83.92
75247;BME280;63844;50.042;19.224;2023-02-08T06:44:33;101656.65;;;-2.25;84.15
75247;BME280;63844;50.042;19.224;2023-02-08T06:46:59;101660.77;;;-2.21;84.20
75247;BME280;63844;50.042;19.224;2023-02-08T06:49:26;101672.17;;;-2.16;84.29
75247;BME280;63844;50.042;19.224;2023-02-08T06:51:52;101671.37;;;-2.14;84.24
75247;BME280;63844;50.042;19.224;2023-02-08T06:54:19;101671.67;;;-2.10;84.38
75247;BME280;63844;50.042;19.224;2023-02-08T06:56:45;101673.66;;;-2.13;84.20
75247;BME280;63844;50.042;19.224;2023-02-08T06:59:12;101679.69;;;-2.09;83.92
75247;BME280;63844;50.042;19.224;2023-02-08T07:01:38;101678.42;;;-2.10;83.54
75247;BME280;63844;50.042;19.224;2023-02-08T07:04:05;101672.80;;;-2.18;83.25
75247;BME280;63844;50.042;19.224;2023-02-08T07:06:31;101681.65;;;-2.18;83.40
75247;BME280;63844;50.042;19.224;2023-02-08T07:08:58;101687.03;;;-2.18;83.37
75247;BME280;63844;50.042;19.224;2023-02-08T07:11:24;101682.35;;;-2.18;83.28
75247;BME280;63844;50.042;19.224;2023-02-08T07:13:51;101687.91;;;-2.18;83.36
75247;BME280;63844;50.042;19.224;2023-02-08T07:16:18;101685.86;;;-2.17;83.24
75247;BME280;63844;50.042;19.224;2023-02-08T07:18:45;101682.34;;;-2.13;82.55
75247;BME280;63844;50.042;19.224;2023-02-08T07:21:11;101681.86;;;-2.17;82.09
75247;BME280;63844;50.042;19.224;2023-02-08T07:23:39;101672.49;;;-2.17;81.78
75247;BME280;63844;50.042;19.224;2023-02-08T07:26:06;101675.02;;;-2.08;82.14
75247;BME280;63844;50.042;19.224;2023-02-08T07:28:33;101677.41;;;-2.03;81.35
75247;BME280;63844;50.042;19.224;2023-02-08T07:31:08;101683.93;;;-2.06;81.08
75247;BME280;63844;50.042;19.224;2023-02-08T07:33:35;101676.52;;;-1.98;81.01
75247;BME280;63844;50.042;19.224;2023-02-08T07:36:02;101678.45;;;-1.97;81.00
75247;BME280;63844;50.042;19.224;2023-02-08T07:38:31;101686.23;;;-1.92;80.64
75247;BME280;63844;50.042;19.224;2023-02-08T07:41:01;101682.27;;;-1.96;80.52
75247;BME280;63844;50.042;19.224;2023-02-08T07:43:28;101683.11;;;-1.91;80.55
75247;BME280;63844;50.042;19.224;2023-02-08T07:45:54;101675.38;;;-1.89;80.25
75247;BME280;63844;50.042;19.224;2023-02-08T07:48:20;101680.22;;;-1.83;80.49
75247;BME280;63844;50.042;19.224;2023-02-08T07:50:47;101680.04;;;-1.77;80.26
75247;BME280;63844;50.042;19.224;2023-02-08T07:53:13;101683.32;;;-1.65;79.40
75247;BME280;63844;50.042;19.224;2023-02-08T07:55:40;101691.98;;;-1.66;79.03
75247;BME280;63844;50.042;19.224;2023-02-08T07:58:06;101692.34;;;-1.65;79.41
75247;BME280;63844;50.042;19.224;2023-02-08T08:00:33;101692.19;;;-1.58;78.56
75247;BME280;63844;50.042;19.224;2023-02-08T08:02:59;101690.75;;;-1.53;78.24
75247;BME280;63844;50.042;19.224;2023-02-08T08:05:26;101691.67;;;-1.58;78.08
75247;BME280;63844;50.042;19.224;2023-02-08T08:07:52;101690.34;;;-1.55;77.79
75247;BME280;63844;50.042;19.224;2023-02-08T08:10:18;101694.95;;;-1.46;78.34
75247;BME280;63844;50.042;19.224;2023-02-08T08:12:45;101690.64;;;-1.38;78.36
75247;BME280;63844;50.042;19.224;2023-02-08T08:15:11;101700.52;;;-1.39;77.16
75247;BME280;63844;50.042;19.224;2023-02-08T08:17:38;101696.74;;;-1.37;76.99
75247;BME280;63844;50.042;19.224;2023-02-08T08:20:09;101699.34;;;-1.38;76.88
75247;BME280;63844;50.042;19.224;2023-02-08T08:22:36;101701.66;;;-1.34;76.70
75247;BME280;63844;50.042;19.224;2023-02-08T08:25:03;101710.26;;;-1.38;76.22
75247;BME280;63844;50.042;19.224;2023-02-08T08:27:29;101711.40;;;-1.35;76.92
75247;BME280;63844;50.042;19.224;2023-02-08T08:29:56;101706.48;;;-1.29;76.12
75247;BME280;63844;50.042;19.224;2023-02-08T08:32:22;101715.73;;;-1.22;75.91
75247;BME280;63844;50.042;19.224;2023-02-08T08:34:49;101718.63;;;-1.17;75.59
75247;BME280;63844;50.042;19.224;2023-02-08T08:37:15;101714.81;;;-1.17;76.30
75247;BME280;63844;50.042;19.224;2023-02-08T08:39:42;101708.58;;;-1.17;75.84
75247;BME280;63844;50.042;19.224;2023-02-08T08:42:09;101715.18;;;-1.09;75.72
75247;BME280;63844;50.042;19.224;2023-02-08T08:44:35;101721.27;;;-1.02;75.29
75247;BME280;63844;50.042;19.224;2023-02-08T08:47:02;101715.09;;;-1.00;74.39
75247;BME280;63844;50.042;19.224;2023-02-08T08:49:29;101720.88;;;-0.97;75.06
75247;BME280;63844;50.042;19.224;2023-02-08T08:51:55;101720.92;;;-0.95;74.99
75247;BME280;63844;50.042;19.224;2023-02-08T08:54:23;101722.98;;;-0.90;74.90
75247;BME280;63844;50.042;19.224;2023-02-08T08:56:49;101725.73;;;-0.90;74.21
75247;BME280;63844;50.042;19.224;2023-02-08T08:59:16;101725.85;;;-0.93;74.13
75247;BME280;63844;50.042;19.224;2023-02-08T09:01:42;101727.00;;;-0.89;74.28
75247;BME280;63844;50.042;19.224;2023-02-08T09:04:09;101724.94;;;-0.80;74.15
75247;BME280;63844;50.042;19.224;2023-02-08T09:06:36;101728.77;;;-0.81;73.68
75247;BME280;63844;50.042;19.224;2023-02-08T09:09:03;101728.69;;;-0.76;73.58
75247;BME280;63844;50.042;19.224;2023-02-08T09:11:30;101728.92;;;-0.67;73.60
75247;BME280;63844;50.042;19.224;2023-02-08T09:14:01;101732.90;;;-0.60;73.43
75247;BME280;63844;50.042;19.224;2023-02-08T09:16:28;101735.27;;;-0.55;72.88
75247;BME280;63844;50.042;19.224;2023-02-08T09:18:54;101743.55;;;-0.59;72.58
75247;BME280;63844;50.042;19.224;2023-02-08T09:21:22;101745.31;;;-0.58;72.88
75247;BME280;63844;50.042;19.224;2023-02-08T09:23:52;101748.13;;;-0.56;72.74
75247;BME280;63844;50.042;19.224;2023-02-08T09:26:19;101753.14;;;-0.50;73.01
75247;BME280;63844;50.042;19.224;2023-02-08T09:28:45;101744.92;;;-0.44;73.15
75247;BME280;63844;50.042;19.224;2023-02-08T09:31:24;101746.17;;;-0.36;72.56
75247;BME280;63844;50.042;19.224;2023-02-08T09:33:53;101748.20;;;-0.31;72.05
75247;BME280;63844;50.042;19.224;2023-02-08T09:36:22;101749.80;;;-0.21;72.66
75247;BME280;63844;50.042;19.224;2023-02-08T09:38:52;101747.69;;;-0.07;71.99
75247;BME280;63844;50.042;19.224;2023-02-08T09:41:38;101757.02;;;0.06;72.58
75247;BME280;63844;50.042;19.224;2023-02-08T09:46:56;101756.65;;;0.21;71.87
75247;BME280;63844;50.042;19.224;2023-02-08T09:49:29;101761.91;;;0.23;71.16
75247;BME280;63844;50.042;19.224;2023-02-08T09:52:00;101760.60;;;0.28;71.80
75247;BME280;63844;50.042;19.224;2023-02-08T09:54:35;101756.84;;;0.22;71.12
75247;BME280;63844;50.042;19.224;2023-02-08T09:57:07;101757.02;;;0.23;71.68
75247;BME280;63844;50.042;19.224;2023-02-08T09:59:36;101754.10;;;0.16;71.49
75247;BME280;63844;50.042;19.224;2023-02-08T10:02:20;101754.98;;;0.09;71.55
75247;BME280;63844;50.042;19.224;2023-02-08T10:05:02;101758.77;;;-0.09;71.95
75247;BME280;63844;50.042;19.224;2023-02-08T10:07:30;101759.84;;;-0.08;72.25
75247;BME280;63844;50.042;19.224;2023-02-08T10:10:00;101755.52;;;-0.07;72.31
75247;BME280;63844;50.042;19.224;2023-02-08T10:19:01;101744.56;;;0.27;71.50
75247;BME280;63844;50.042;19.224;2023-02-08T10:21:37;101737.84;;;0.39;71.09
75247;BME280;63844;50.042;19.224;2023-02-08T10:27:15;101730.23;;;0.42;70.19
75247;BME280;63844;50.042;19.224;2023-02-08T10:32:30;101726.64;;;0.28;70.09
75247;BME280;63844;50.042;19.224;2023-02-08T10:35:07;101727.04;;;0.30;70.24
75247;BME280;63844;50.042;19.224;2023-02-08T10:37:39;101728.32;;;0.34;70.26
75247;BME280;63844;50.042;19.224;2023-02-08T10:42:57;101725.60;;;0.55;70.61
75247;BME280;63844;50.042;19.224;2023-02-08T10:45:29;101727.75;;;0.58;70.43
75247;BME280;63844;50.042;19.224;2023-02-08T10:48:01;101727.33;;;0.63;70.28
75247;BME280;63844;50.042;19.224;2023-02-08T10:50:35;101721.44;;;0.56;70.34
75247;BME280;63844;50.042;19.224;2023-02-08T10:53:03;101718.03;;;0.59;70.31
75247;BME280;63844;50.042;19.224;2023-02-08T10:55:31;101717.47;;;0.58;70.22
75247;BME280;63844;50.042;19.224;2023-02-08T10:58:03;101716.07;;;0.58;70.47
75247;BME280;63844;50.042;19.224;2023-02-08T11:00:35;101717.42;;;0.55;70.18
75247;BME280;63844;50.042;19.224;2023-02-08T11:03:14;101722.38;;;0.59;70.27
75247;BME280;63844;50.042;19.224;2023-02-08T11:05:41;101718.33;;;0.57;69.30
75247;BME280;63844;50.042;19.224;2023-02-08T11:08:09;101713.40;;;0.55;69.52
75247;BME280;63844;50.042;19.224;2023-02-08T11:10:40;101709.19;;;0.62;69.48
75247;BME280;63844;50.042;19.224;2023-02-08T11:16:09;101713.46;;;0.67;68.03
75247;BME280;63844;50.042;19.224;2023-02-08T11:18:47;101713.18;;;0.71;67.89
75247;BME280;63844;50.042;19.224;2023-02-08T11:21:47;101711.56;;;0.78;67.29
75247;BME280;63844;50.042;19.224;2023-02-08T11:26:41;101714.23;;;0.81;66.80
75247;BME280;63844;50.042;19.224;2023-02-08T11:29:34;101713.45;;;0.76;65.94
75247;BME280;63844;50.042;19.224;2023-02-08T11:32:15;101715.89;;;0.77;66.27
75247;BME280;63844;50.042;19.224;2023-02-08T11:34:42;101707.31;;;0.84;66.81
75247;BME280;63844;50.042;19.224;2023-02-08T11:37:23;101702.20;;;0.92;65.41
75247;BME280;63844;50.042;19.224;2023-02-08T11:39:55;101697.88;;;1.04;65.21
75247;BME280;63844;50.042;19.224;2023-02-08T11:42:28;101691.33;;;1.08;64.65
75247;BME280;63844;50.042;19.224;2023-02-08T11:44:57;101687.25;;;1.16;65.10
75247;BME280;63844;50.042;19.224;2023-02-08T11:47:27;101690.23;;;1.17;64.25
75247;BME280;63844;50.042;19.224;2023-02-08T11:49:57;101688.55;;;1.20;63.55
75247;BME280;63844;50.042;19.224;2023-02-08T11:52:27;101686.34;;;1.24;64.09
75247;BME280;63844;50.042;19.224;2023-02-08T11:55:18;101685.98;;;1.24;63.24
75247;BME280;63844;50.042;19.224;2023-02-08T11:57:56;101688.36;;;1.31;62.61
75247;BME280;63844;50.042;19.224;2023-02-08T12:00:36;101686.35;;;1.48;62.96
75247;BME280;63844;50.042;19.224;2023-02-08T12:03:16;101685.15;;;1.49;62.79
75247;BME280;63844;50.042;19.224;2023-02-08T12:14:46;101680.02;;;1.57;63.05
75247;BME280;63844;50.042;19.224;2023-02-08T12:17:27;101681.93;;;1.56;61.18
75247;BME280;63844;50.042;19.224;2023-02-08T12:20:05;101674.56;;;1.66;60.60
75247;BME280;63844;50.042;19.224;2023-02-08T12:22:38;101674.73;;;1.66;60.81
75247;BME280;63844;50.042;19.224;2023-02-08T12:28:53;101666.88;;;1.66;60.79
75247;BME280;63844;50.042;19.224;2023-02-08T12:31:43;101665.22;;;1.72;60.44
75247;BME280;63844;50.042;19.224;2023-02-08T12:34:42;101666.60;;;1.71;59.82
75247;BME280;63844;50.042;19.224;2023-02-08T12:37:44;101662.94;;;1.71;59.71
75247;BME280;63844;50.042;19.224;2023-02-08T12:41:07;101661.85;;;1.43;60.74
75247;BME280;63844;50.042;19.224;2023-02-08T12:43:44;101658.02;;;1.57;60.78
75247;BME280;63844;50.042;19.224;2023-02-08T12:49:14;101652.53;;;1.76;60.40
75247;BME280;63844;50.042;19.224;2023-02-08T12:57:04;101642.80;;;2.27;59.56
75247;BME280;63844;50.042;19.224;2023-02-08T12:59:37;101636.13;;;2.40;58.39
75247;BME280;63844;50.042;19.224;2023-02-08T13:02:14;101634.56;;;2.58;58.99
75247;BME280;63844;50.042;19.224;2023-02-08T13:04:45;101633.38;;;2.63;58.68
75247;BME280;63844;50.042;19.224;2023-02-08T13:07:25;101629.86;;;2.41;60.31
75247;BME280;63844;50.042;19.224;2023-02-08T13:10:21;101630.45;;;2.14;60.64
75247;BME280;63844;50.042;19.224;2023-02-08T13:12:55;101621.58;;;2.18;61.00
75247;BME280;63844;50.042;19.224;2023-02-08T13:15:35;101622.00;;;2.08;60.26
75247;BME280;63844;50.042;19.224;2023-02-08T13:18:33;101613.20;;;2.17;59.59
75247;BME280;63844;50.042;19.224;2023-02-08T13:21:02;101612.07;;;2.10;59.09
75247;BME280;63844;50.042;19.224;2023-02-08T13:23:35;101613.31;;;2.28;60.24
75247;BME280;63844;50.042;19.224;2023-02-08T13:26:08;101613.52;;;2.52;59.28
75247;BME280;63844;50.042;19.224;2023-02-08T13:28:37;101614.23;;;2.71;58.16
75247;BME280;63844;50.042;19.224;2023-02-08T13:31:11;101613.58;;;2.79;58.37
75247;BME280;63844;50.042;19.224;2023-02-08T13:33:44;101606.98;;;2.83;57.70
75247;BME280;63844;50.042;19.224;2023-02-08T13:36:22;101606.96;;;2.81;56.85
75247;BME280;63844;50.042;19.224;2023-02-08T13:38:50;101605.58;;;3.07;57.93
75247;BME280;63844;50.042;19.224;2023-02-08T13:41:23;101606.85;;;3.14;56.83
75247;BME280;63844;50.042;19.224;2023-02-08T13:43:54;101613.44;;;3.33;55.91
75247;BME280;63844;50.042;19.224;2023-02-08T13:46:25;101605.61;;;3.43;55.25
75247;BME280;63844;50.042;19.224;2023-02-08T13:48:56;101605.57;;;3.34;54.61
75247;BME280;63844;50.042;19.224;2023-02-08T13:56:42;101600.95;;;3.56;55.54
75247;BME280;63844;50.042;19.224;2023-02-08T13:59:37;101598.77;;;3.39;55.16
75247;BME280;63844;50.042;19.224;2023-02-08T14:04:49;101606.54;;;3.52;54.54
75247;BME280;63844;50.042;19.224;2023-02-08T14:07:36;101603.69;;;3.45;53.95
75247;BME280;63844;50.042;19.224;2023-02-08T14:12:53;101606.66;;;3.42;54.98
75247;BME280;63844;50.042;19.224;2023-02-08T14:17:50;101607.77;;;3.24;55.94
75247;BME280;63844;50.042;19.224;2023-02-08T14:20:36;101601.39;;;3.09;55.45
75247;BME280;63844;50.042;19.224;2023-02-08T14:23:37;101601.98;;;2.95;55.63
75247;BME280;63844;50.042;19.224;2023-02-08T14:26:14;101594.23;;;2.63;55.95
75247;BME280;63844;50.042;19.224;2023-02-08T14:28:56;101596.78;;;2.56;56.58